Time;durP1;ratioP1;P1;durP2;ratioP2;P2;SDS_P1;SDS_P2;PMS_P1;PMS_P2;Temp;Humidity;BMP_temperature;BMP_pressure;BME280_temperature;BME280_humidity;BME280_pressure;Samples;Min_cycle;Max_cycle;Signal;HPM_P1;HPM_P2
2021/03/28 00:00:57;;;;;;;6.00;2.03;;;2.10;99.90;;;;;;5051797;28;20029;-76
2021/03/28 00:03:31;;;;;;;1.70;1.50;;;2.00;99.90;;;;;;5047459;28;20043;-75
2021/03/28 00:06:28;;;;;;;2.33;1.55;;;2.00;99.90;;;;;;5058123;28;21361;-76
2021/03/28 00:09:23;;;;;;;5.00;1.83;;;2.10;99.90;;;;;;5058909;28;20712;-75
2021/03/28 00:12:22;;;;;;;4.55;1.52;;;2.00;99.90;;;;;;5048963;28;20387;-76
2021/03/28 00:15:09;;;;;;;3.20;1.80;;;1.90;99.90;;;;;;5055598;28;20025;-76
2021/03/28 00:17:41;;;;;;;3.25;1.23;;;2.00;99.90;;;;;;5060025;28;20032;-75
2021/03/28 00:20:29;;;;;;;2.15;1.58;;;2.00;99.90;;;;;;5056999;28;20506;-75
2021/03/28 00:23:13;;;;;;;5.93;1.58;;;2.00;99.90;;;;;;5058733;28;20037;-76
2021/03/28 00:25:54;;;;;;;3.05;1.48;;;2.00;99.90;;;;;;5059110;28;20056;-76
2021/03/28 00:28:36;;;;;;;6.90;2.55;;;1.90;99.90;;;;;;5058806;28;20467;-76
2021/03/28 00:31:21;;;;;;;2.22;1.70;;;1.90;99.90;;;;;;5060361;28;20028;-75
2021/03/28 00:34:12;;;;;;;3.17;1.53;;;1.80;99.90;;;;;;5090793;28;20544;-76
2021/03/28 00:37:14;;;;;;;7.07;2.35;;;1.70;99.90;;;;;;5043907;28;20036;-75
2021/03/28 00:39:48;;;;;;;5.20;1.65;;;1.70;99.90;;;;;;5044993;28;20535;-75
2021/03/28 00:42:45;;;;;;;5.38;2.30;;;1.70;99.90;;;;;;5063260;28;20503;-76
2021/03/28 00:45:40;;;;;;;2.42;1.73;;;1.60;99.90;;;;;;5068031;28;20515;-76
2021/03/28 00:48:14;;;;;;;3.03;1.83;;;1.70;99.90;;;;;;5082970;28;20025;-75
2021/03/28 00:50:48;;;;;;;3.67;1.73;;;1.60;99.90;;;;;;5043402;28;20680;-76
2021/03/28 00:53:30;;;;;;;4.82;2.20;;;1.60;99.90;;;;;;5061277;28;20492;-76
2021/03/28 00:56:04;;;;;;;4.82;1.88;;;1.60;99.90;;;;;;5061450;28;20025;-75
2021/03/28 00:58:54;;;;;;;3.90;2.03;;;1.60;99.90;;;;;;5089733;28;20040;-76
2021/03/28 01:02:03;;;;;;;;;;;1.60;99.90;;;;;;5055864;28;20403;-76
2021/03/28 01:04:55;;;;;;;3.05;1.77;;;1.60;99.90;;;;;;5056392;28;20280;-75
2021/03/28 01:07:39;;;;;;;5.43;2.33;;;1.50;99.90;;;;;;5061222;28;20024;-75
2021/03/28 01:10:27;;;;;;;4.07;2.05;;;1.40;99.90;;;;;;5089575;28;20033;-76
2021/03/28 01:13:30;;;;;;;4.78;2.33;;;1.50;99.90;;;;;;5058724;28;20056;-76
2021/03/28 01:16:15;;;;;;;3.15;2.10;;;1.40;99.90;;;;;;5054504;28;20036;-76
2021/03/28 01:19:19;;;;;;;4.72;2.33;;;1.40;99.90;;;;;;5060458;28;20032;-75
2021/03/28 01:21:57;;;;;;;3.42;2.40;;;1.30;99.90;;;;;;5023855;28;20032;-76
2021/03/28 01:24:43;;;;;;;4.80;2.58;;;1.30;99.90;;;;;;5061635;28;20031;-74
2021/03/28 01:27:23;;;;;;;3.00;2.13;;;1.20;99.90;;;;;;5060883;28;20027;-74
2021/03/28 01:30:11;;;;;;;7.28;2.75;;;1.20;99.90;;;;;;5058257;28;20028;-76
2021/03/28 01:32:46;;;;;;;4.93;2.55;;;1.20;99.90;;;;;;5057504;28;20025;-76
2021/03/28 01:35:12;;;;;;;;;;;1.30;99.90;;;;;;5058695;28;20484;-76
2021/03/28 01:38:06;;;;;;;4.68;2.78;;;1.30;99.90;;;;;;5058243;28;21169;-76
2021/03/28 01:40:44;;;;;;;3.08;1.98;;;1.30;99.90;;;;;;5055122;28;20468;-76
2021/03/28 01:43:35;;;;;;;3.65;2.10;;;1.30;99.90;;;;;;5055728;28;20025;-76
2021/03/28 01:46:10;;;;;;;2.72;1.90;;;1.40;99.90;;;;;;5062038;28;20133;-76
2021/03/28 01:48:52;;;;;;;5.88;2.13;;;1.40;99.90;;;;;;5058043;28;20067;-76
2021/03/28 01:51:17;;;;;;;3.08;1.70;;;1.40;99.90;;;;;;5063154;28;20033;-76
2021/03/28 01:54:07;;;;;;;2.85;1.90;;;1.40;99.90;;;;;;5044708;28;20029;-76
2021/03/28 01:57:04;;;;;;;4.47;2.20;;;1.40;99.90;;;;;;5062047;28;20029;-75
2021/03/28 02:00:14;;;;;;;3.33;2.38;;;1.40;99.90;;;;;;5062268;28;20063;-76
2021/03/28 02:02:52;;;;;;;2.72;2.20;;;1.50;99.90;;;;;;5051932;28;20058;-76
2021/03/28 02:05:17;;;;;;;6.63;2.22;;;1.50;99.90;;;;;;5045114;28;20097;-76
2021/03/28 02:07:55;;;;;;;3.38;2.05;;;1.50;99.90;;;;;;5062551;28;20475;-76
2021/03/28 02:10:48;;;;;;;4.38;2.63;;;1.50;99.90;;;;;;5062991;28;20032;-76
2021/03/28 02:13:13;;;;;;;3.67;2.50;;;1.60;99.90;;;;;;5064410;28;20040;-76
2021/03/28 02:16:08;;;;;;;3.95;2.55;;;1.60;99.90;;;;;;5060791;28;20044;-76
2021/03/28 02:18:45;;;;;;;3.97;2.72;;;1.60;99.90;;;;;;5035764;28;20075;-76
2021/03/28 02:21:48;;;;;;;9.52;3.03;;;1.70;99.90;;;;;;5059406;28;20071;-76
2021/03/28 02:24:39;;;;;;;4.70;3.17;;;1.70;99.90;;;;;;5060216;28;20667;-76
2021/03/28 02:27:38;;;;;;;6.43;2.95;;;1.70;99.90;;;;;;5058896;28;20025;-76
2021/03/28 02:30:23;;;;;;;4.43;2.45;;;1.80;99.90;;;;;;5062574;28;20055;-76
2021/03/28 02:33:13;;;;;;;5.72;3.25;;;1.80;99.90;;;;;;5058733;28;20024;-76
2021/03/28 02:36:16;;;;;;;3.97;2.50;;;1.80;99.90;;;;;;5063218;28;20028;-76
2021/03/28 02:39:19;;;;;;;4.50;1.80;;;1.80;99.90;;;;;;5063450;28;20021;-76
2021/03/28 02:42:02;;;;;;;1.85;1.30;;;1.80;99.90;;;;;;5033888;28;20037;-76
2021/03/28 02:44:52;;;;;;;2.65;1.58;;;1.80;99.90;;;;;;5092636;28;20032;-76
2021/03/28 02:47:40;;;;;;;2.63;1.45;;;1.80;99.90;;;;;;5058422;28;20036;-76
2021/03/28 02:50:34;;;;;;;2.35;1.42;;;1.90;99.90;;;;;;5055621;28;20029;-76
2021/03/28 02:53:37;;;;;;;2.50;1.52;;;1.90;99.90;;;;;;5095307;28;20040;-76
2021/03/28 02:56:06;;;;;;;5.35;2.35;;;1.90;99.90;;;;;;5095541;28;20040;-76
2021/03/28 02:59:00;;;;;;;4.35;2.35;;;1.80;99.90;;;;;;5060718;28;20086;-76
2021/03/28 03:01:54;;;;;;;4.90;2.17;;;1.90;99.90;;;;;;5089968;28;20444;-76
2021/03/28 03:04:37;;;;;;;3.60;2.42;;;2.00;99.90;;;;;;5061976;28;20086;-76
2021/03/28 03:07:26;;;;;;;3.60;2.58;;;2.00;99.90;;;;;;5058339;28;20032;-76
2021/03/28 03:10:23;;;;;;;5.18;2.25;;;2.00;99.90;;;;;;5093550;28;20452;-76
2021/03/28 03:13:15;;;;;;;4.28;2.55;;;2.00;99.90;;;;;;5057724;28;20027;-76
2021/03/28 03:16:03;;;;;;;4.32;2.03;;;2.00;99.90;;;;;;5021149;28;20403;-76
2021/03/28 03:19:18;;;;;;;4.38;2.20;;;1.90;99.90;;;;;;5074357;28;20503;-76
2021/03/28 03:22:07;;;;;;;2.83;2.08;;;1.90;99.90;;;;;;5063016;28;20112;-76
2021/03/28 03:25:10;;;;;;;3.30;2.22;;;2.00;99.90;;;;;;5060716;28;20049;-76
2021/03/28 03:28:11;;;;;;;5.20;1.80;;;2.00;99.90;;;;;;5055793;28;20040;-76
2021/03/28 03:30:50;;;;;;;3.70;1.67;;;2.10;99.90;;;;;;5093264;28;20086;-76
2021/03/28 03:33:41;;;;;;;2.45;1.42;;;2.00;99.90;;;;;;5060756;28;20045;-76
2021/03/28 03:36:51;;;;;;;3.63;2.25;;;2.00;99.90;;;;;;5057078;28;20526;-76
2021/03/28 03:39:23;;;;;;;4.50;2.17;;;2.20;99.90;;;;;;4988527;28;20038;-76
2021/03/28 03:41:57;;;;;;;6.30;1.95;;;2.20;99.90;;;;;;4988300;28;20033;-76
2021/03/28 03:44:50;;;;;;;3.85;1.98;;;2.10;99.90;;;;;;5048045;28;20033;-76
2021/03/28 03:47:24;;;;;;;6.72;2.08;;;2.10;99.90;;;;;;5058772;28;20107;-76
2021/03/28 03:50:15;;;;;;;4.47;1.70;;;2.00;99.90;;;;;;5057864;28;20048;-76
2021/03/28 03:53:05;;;;;;;4.03;1.48;;;2.00;99.90;;;;;;5060427;28;20100;-76
2021/03/28 03:55:38;;;;;;;4.65;2.17;;;2.00;99.90;;;;;;5091616;28;20052;-75
2021/03/28 03:58:27;;;;;;;3.08;1.98;;;2.00;99.90;;;;;;5059613;28;20028;-76
2021/03/28 04:01:19;;;;;;;3.83;1.98;;;2.00;99.90;;;;;;5091002;28;20036;-76
2021/03/28 04:04:04;;;;;;;3.95;1.90;;;2.00;99.90;;;;;;5025163;28;20089;-76
2021/03/28 04:06:39;;;;;;;;;;;2.10;99.90;;;;;;5057759;28;20017;-75
2021/03/28 04:09:16;;;;;;;3.00;1.50;;;2.00;99.90;;;;;;5055699;28;19909;-76
2021/03/28 04:11:48;;;;;;;5.10;2.22;;;2.10;99.90;;;;;;5093743;28;20509;-76
2021/03/28 04:14:28;;;;;;;3.65;2.33;;;2.20;99.90;;;;;;5062660;28;20430;-76
2021/03/28 04:17:00;;;;;;;3.25;2.08;;;2.20;99.90;;;;;;5054456;28;20029;-76
2021/03/28 04:19:32;;;;;;;2.45;1.70;;;2.10;99.90;;;;;;5056119;28;20058;-76
2021/03/28 04:22:04;;;;;;;4.85;2.05;;;2.10;99.90;;;;;;5058745;28;20070;-75
2021/03/28 04:25:04;;;;;;;4.65;1.73;;;2.10;99.90;;;;;;5059489;28;20056;-75
2021/03/28 04:28:04;;;;;;;3.75;1.98;;;2.10;99.90;;;;;;5007690;28;20032;-75
2021/03/28 04:30:57;;;;;;;2.75;2.30;;;2.10;99.90;;;;;;5051255;28;20025;-73
2021/03/28 04:33:53;;;;;;;6.75;2.13;;;2.10;99.90;;;;;;5057680;28;20024;-75
2021/03/28 04:36:22;;;;;;;;;;;2.10;99.90;;;;;;5059246;28;20021;-75
2021/03/28 04:39:02;;;;;;;3.25;1.58;;;2.10;99.90;;;;;;5085931;28;19942;-75
2021/03/28 04:41:59;;;;;;;2.03;1.42;;;2.10;99.90;;;;;;5056373;28;20051;-75
2021/03/28 04:44:46;;;;;;;;;;;2.10;99.90;;;;;;5068206;28;20021;-75
2021/03/28 04:47:42;;;;;;;6.75;2.05;;;2.20;99.90;;;;;;5051262;28;19908;-75
2021/03/28 04:50:45;;;;;;;5.33;2.00;;;2.30;99.90;;;;;;5061486;28;20044;-74
2021/03/28 04:53:41;;;;;;;7.00;1.67;;;2.30;99.90;;;;;;5061208;28;20457;-75
2021/03/28 04:56:28;;;;;;;3.65;2.70;;;2.30;99.90;;;;;;5054354;28;20036;-75
2021/03/28 04:59:38;;;;;;;2.90;1.70;;;2.30;99.90;;;;;;5056539;28;20024;-75
2021/03/28 05:02:43;;;;;;;5.25;1.75;;;2.30;99.90;;;;;;5018035;28;20033;-74
2021/03/28 05:05:44;;;;;;;4.63;1.50;;;2.20;99.90;;;;;;5054514;28;20394;-75
2021/03/28 05:08:21;;;;;;;1.48;1.30;;;2.20;99.90;;;;;;5039721;28;20112;-75
2021/03/28 05:11:24;;;;;;;3.28;1.92;;;2.20;99.90;;;;;;5050760;28;20029;-74
2021/03/28 05:14:01;;;;;;;4.40;1.80;;;2.40;99.90;;;;;;5052148;28;20041;-75
2021/03/28 05:16:45;;;;;;;3.40;1.63;;;2.40;99.90;;;;;;5093388;28;20032;-75
2021/03/28 05:19:49;;;;;;;1.85;1.60;;;2.30;99.90;;;;;;5052851;28;20039;-74
2021/03/28 05:22:53;;;;;;;2.17;1.48;;;2.20;99.90;;;;;;5058546;28;20037;-75
2021/03/28 05:25:34;;;;;;;2.25;1.50;;;2.20;99.90;;;;;;5026300;28;20036;-75
2021/03/28 05:28:09;;;;;;;1.88;1.67;;;2.10;99.90;;;;;;5060076;28;20025;-75
2021/03/28 05:31:12;;;;;;;2.10;1.90;;;2.10;99.90;;;;;;5090541;28;20037;-74
2021/03/28 05:34:16;;;;;;;2.40;1.45;;;2.20;99.90;;;;;;5054109;28;20027;-75
2021/03/28 05:37:10;;;;;;;2.90;1.52;;;2.20;99.90;;;;;;5026933;28;20061;-74
2021/03/28 05:39:44;;;;;;;3.20;1.92;;;2.20;99.90;;;;;;5054882;28;20421;-75
2021/03/28 05:42:31;;;;;;;3.85;1.88;;;2.30;99.90;;;;;;5055549;28;20491;-74
2021/03/28 05:45:10;;;;;;;5.07;2.22;;;2.40;99.90;;;;;;5044231;28;20024;-75
2021/03/28 05:48:04;;;;;;;2.30;1.67;;;2.50;99.90;;;;;;5058474;28;20376;-74
2021/03/28 05:51:07;;;;;;;2.03;1.83;;;2.60;99.90;;;;;;5049048;28;20037;-74
2021/03/28 05:53:58;;;;;;;2.30;1.67;;;2.60;99.90;;;;;;5061903;28;20059;-74
2021/03/28 05:57:02;;;;;;;4.10;1.60;;;2.70;99.90;;;;;;5085332;28;20025;-74
2021/03/28 05:59:46;;;;;;;3.92;1.27;;;2.70;99.90;;;;;;5080051;28;20032;-75
2021/03/28 06:02:47;;;;;;;2.42;1.52;;;2.70;99.90;;;;;;5060882;28;20029;-75
2021/03/28 06:05:21;;;;;;;1.88;1.40;;;2.70;99.90;;;;;;5031983;28;20457;-75
2021/03/28 06:08:16;;;;;;;1.42;1.10;;;2.80;99.90;;;;;;5055014;28;20507;-74
2021/03/28 06:11:02;;;;;;;2.10;1.48;;;2.80;99.90;;;;;;5059698;28;20024;-75
2021/03/28 06:13:37;;;;;;;1.23;1.13;;;2.90;99.90;;;;;;5063605;28;20025;-75
2021/03/28 06:16:40;;;;;;;2.20;1.55;;;2.90;99.90;;;;;;5058093;28;20094;-75
2021/03/28 06:19:25;;;;;;;3.90;2.10;;;3.00;99.90;;;;;;5067695;28;20631;-75
2021/03/28 06:22:15;;;;;;;3.65;1.50;;;3.10;99.90;;;;;;5056194;28;20024;-75
2021/03/28 06:24:50;;;;;;;2.90;1.85;;;3.10;99.90;;;;;;5054378;28;20072;-75
2021/03/28 06:27:46;;;;;;;4.20;2.00;;;3.20;99.90;;;;;;5054823;28;20112;-74
2021/03/28 06:30:36;;;;;;;6.72;1.83;;;3.30;99.90;;;;;;5089987;28;20044;-74
2021/03/28 06:33:44;;;;;;;2.70;1.63;;;3.30;99.90;;;;;;5092550;28;20056;-74
2021/03/28 06:36:33;;;;;;;4.68;1.92;;;3.30;99.90;;;;;;5050580;28;20020;-74
2021/03/28 06:39:21;;;;;;;2.92;1.85;;;3.50;99.90;;;;;;5058911;28;20029;-74
2021/03/28 06:42:14;;;;;;;4.07;1.73;;;3.50;99.90;;;;;;5061706;28;20077;-74
2021/03/28 06:44:49;;;;;;;1.65;1.42;;;3.60;99.90;;;;;;5059558;28;20025;-74
2021/03/28 06:47:53;;;;;;;5.63;1.73;;;3.70;99.90;;;;;;5068666;28;20064;-73
2021/03/28 06:50:37;;;;;;;7.65;2.20;;;3.80;99.90;;;;;;5056834;28;20039;-74
2021/03/28 06:53:26;;;;;;;3.67;1.95;;;3.90;99.90;;;;;;5063956;28;20029;-75
2021/03/28 06:56:40;;;;;;;2.58;1.80;;;3.90;99.90;;;;;;5039482;28;20036;-74
2021/03/28 06:59:29;;;;;;;2.67;1.50;;;4.00;99.90;;;;;;5060104;28;20041;-75
2021/03/28 07:02:16;;;;;;;3.53;1.70;;;4.00;99.90;;;;;;5034024;28;20037;-74
2021/03/28 07:05:06;;;;;;;5.13;2.22;;;4.00;99.90;;;;;;5091460;28;20107;-74
2021/03/28 07:07:35;;;;;;;4.28;1.70;;;4.00;99.90;;;;;;5059907;28;20049;-74
2021/03/28 07:10:22;;;;;;;2.78;2.08;;;4.00;99.90;;;;;;5061122;28;20032;-74
2021/03/28 07:13:07;;;;;;;5.40;1.77;;;4.00;99.90;;;;;;5059949;28;20528;-75
2021/03/28 07:15:47;;;;;;;6.80;2.07;;;4.00;99.90;;;;;;5055462;28;20017;-74
2021/03/28 07:18:41;;;;;;;5.10;1.90;;;4.00;99.90;;;;;;5061537;28;20048;-74
2021/03/28 07:21:13;;;;;;;4.90;2.08;;;4.10;99.90;;;;;;5056123;28;20025;-74
2021/03/28 07:23:50;;;;;;;2.53;1.33;;;4.10;99.90;;;;;;5056507;28;20142;-75
2021/03/28 07:26:44;;;;;;;6.97;1.85;;;4.10;99.90;;;;;;5060767;28;20032;-74
2021/03/28 07:29:19;;;;;;;6.80;2.08;;;4.20;99.90;;;;;;5057060;28;20120;-75
2021/03/28 07:32:22;;;;;;;5.73;2.20;;;4.20;99.90;;;;;;5055426;28;20120;-74
2021/03/28 07:35:06;;;;;;;3.15;2.28;;;4.20;99.90;;;;;;5059766;28;20479;-74
2021/03/28 07:37:59;;;;;;;5.95;2.28;;;4.30;99.90;;;;;;5061940;28;20039;-75
2021/03/28 07:40:46;;;;;;;6.50;2.40;;;4.40;99.90;;;;;;5064401;28;20017;-74
2021/03/28 07:43:24;;;;;;;4.78;2.10;;;4.40;99.90;;;;;;5062612;28;20107;-75
2021/03/28 07:46:08;;;;;;;5.53;2.20;;;4.50;99.90;;;;;;5062275;28;20031;-74
2021/03/28 07:49:10;;;;;;;2.75;2.25;;;4.60;99.90;;;;;;5054059;28;20060;-74
2021/03/28 07:52:10;;;;;;;3.50;2.45;;;4.80;99.90;;;;;;5059352;28;20032;-74
2021/03/28 07:54:59;;;;;;;5.68;1.83;;;4.90;99.90;;;;;;5059519;28;20028;-74
2021/03/28 07:57:59;;;;;;;5.97;2.10;;;5.00;99.90;;;;;;5062084;28;20460;-74
2021/03/28 08:00:53;;;;;;;5.32;2.97;;;5.20;99.90;;;;;;5033892;28;20119;-74
2021/03/28 08:03:40;;;;;;;7.50;1.98;;;5.30;99.90;;;;;;5057368;28;20112;-74
2021/03/28 08:06:11;;;;;;;2.38;1.83;;;5.40;99.90;;;;;;5062099;28;20048;-74
2021/03/28 08:09:06;;;;;;;3.88;1.83;;;5.50;99.90;;;;;;5059952;28;20055;-74
2021/03/28 08:11:53;;;;;;;2.42;1.42;;;5.60;99.90;;;;;;5061783;28;20479;-74
2021/03/28 08:14:49;;;;;;;4.10;2.10;;;5.60;99.90;;;;;;5056049;28;20029;-74
2021/03/28 08:17:14;;;;;;;3.92;2.10;;;5.70;99.90;;;;;;5063108;28;20067;-74
2021/03/28 08:20:02;;;;;;;3.22;1.83;;;5.80;99.90;;;;;;5057483;28;20052;-74
2021/03/28 08:22:49;;;;;;;5.85;2.08;;;5.80;99.90;;;;;;5045045;28;20032;-74
2021/03/28 08:25:23;;;;;;;5.82;2.67;;;5.90;99.90;;;;;;5043659;28;20021;-74
2021/03/28 08:28:23;;;;;;;4.95;1.80;;;5.90;99.90;;;;;;5051013;28;20036;-74
2021/03/28 08:31:21;;;;;;;3.45;1.90;;;5.80;99.90;;;;;;5050035;28;20040;-74
2021/03/28 08:33:58;;;;;;;6.05;2.22;;;5.90;99.90;;;;;;5054064;28;20029;-74
2021/03/28 08:36:53;;;;;;;2.80;1.60;;;5.90;99.90;;;;;;5059299;28;20052;-74
2021/03/28 08:39:36;;;;;;;5.20;1.92;;;6.00;99.90;;;;;;5059000;28;20558;-74
2021/03/28 08:42:39;;;;;;;3.97;2.05;;;6.10;99.90;;;;;;5060188;28;20032;-74
2021/03/28 08:45:32;;;;;;;8.15;2.50;;;6.10;99.90;;;;;;5058960;28;20048;-74
2021/03/28 08:48:04;;;;;;;4.15;1.85;;;6.20;99.90;;;;;;5060555;28;20036;-73
2021/03/28 08:50:30;;;;;;;4.85;2.20;;;6.30;99.90;;;;;;5052631;28;20033;-73
2021/03/28 08:53:10;;;;;;;4.57;2.33;;;6.30;99.90;;;;;;5054888;28;20025;-73
2021/03/28 08:56:14;;;;;;;4.35;1.63;;;6.30;99.90;;;;;;5055483;28;20028;-74
2021/03/28 08:59:07;;;;;;;3.28;1.70;;;6.40;99.90;;;;;;5052908;28;20033;-74
2021/03/28 09:01:47;;;;;;;6.45;2.25;;;6.50;99.90;;;;;;5057657;28;20048;-73
2021/03/28 09:04:46;;;;;;;4.35;1.40;;;6.70;99.90;;;;;;5055442;28;20116;-74
2021/03/28 09:07:16;;;;;;;3.28;1.40;;;6.90;99.90;;;;;;5056399;28;20033;-74
2021/03/28 09:10:02;;;;;;;5.65;2.00;;;7.10;99.90;;;;;;5054719;28;20507;-73
2021/03/28 09:12:56;;;;;;;2.78;1.48;;;7.30;99.90;;;;;;5056739;28;20479;-74
2021/03/28 09:15:33;;;;;;;4.30;1.33;;;7.60;99.90;;;;;;5053263;28;20565;-74
2021/03/28 09:18:18;;;;;;;4.85;1.75;;;7.80;99.90;;;;;;5050726;28;20090;-74
2021/03/28 09:20:52;;;;;;;4.20;1.50;;;7.90;99.90;;;;;;5058700;28;20040;-73
2021/03/28 09:23:42;;;;;;;5.60;1.85;;;8.00;99.90;;;;;;5053046;28;20036;-74
2021/03/28 09:26:41;;;;;;;4.65;1.42;;;8.20;99.90;;;;;;5053423;28;20036;-72
2021/03/28 09:29:41;;;;;;;3.92;1.92;;;8.40;99.90;;;;;;5053846;28;20032;-73
2021/03/28 09:32:44;;;;;;;4.68;1.60;;;8.50;99.90;;;;;;5052308;28;20531;-74
2021/03/28 09:35:16;;;;;;;3.30;1.30;;;8.70;99.90;;;;;;5051642;28;20047;-73
2021/03/28 09:38:01;;;;;;;5.22;2.05;;;8.80;99.90;;;;;;5050058;28;20112;-74
2021/03/28 09:40:50;;;;;;;5.30;2.10;;;8.90;99.90;;;;;;5050682;28;20393;-73
2021/03/28 09:43:26;;;;;;;7.20;1.98;;;8.90;99.90;;;;;;5053030;28;20103;-74
2021/03/28 09:46:07;;;;;;;5.35;1.65;;;8.90;99.90;;;;;;5053864;28;20103;-74
2021/03/28 09:48:43;;;;;;;6.40;1.90;;;9.00;99.90;;;;;;5083914;28;20025;-74
2021/03/28 09:51:46;;;;;;;3.67;1.63;;;9.00;99.90;;;;;;5049299;28;20025;-73
2021/03/28 09:54:36;;;;;;;3.33;1.80;;;9.10;99.90;;;;;;5052719;28;20029;-74
2021/03/28 09:57:17;;;;;;;4.90;1.70;;;9.10;99.90;;;;;;5052771;28;20120;-74
2021/03/28 10:00:14;;;;;;;7.57;2.17;;;9.30;99.90;;;;;;5055180;28;20026;-74
2021/03/28 10:02:59;;;;;;;2.90;1.42;;;9.30;99.90;;;;;;5067455;28;20067;-74
2021/03/28 10:05:32;;;;;;;3.95;1.42;;;9.50;99.90;;;;;;5052317;28;20475;-74
2021/03/28 10:08:14;;;;;;;6.50;1.58;;;9.50;99.90;;;;;;5049285;28;20024;-74
2021/03/28 10:11:04;;;;;;;4.03;1.90;;;9.70;99.90;;;;;;5055229;28;20028;-74
2021/03/28 10:13:44;;;;;;;7.95;1.77;;;9.80;99.90;;;;;;5055797;28;20025;-74
2021/03/28 10:16:14;;;;;;;4.47;1.80;;;9.80;99.90;;;;;;5053923;28;20033;-72
2021/03/28 10:18:58;;;;;;;4.30;1.60;;;10.00;99.90;;;;;;5088695;28;20028;-74
2021/03/28 10:21:40;;;;;;;3.92;2.10;;;10.20;99.90;;;;;;5059166;28;20013;-73
2021/03/28 10:24:46;;;;;;;3.42;2.05;;;10.20;99.90;;;;;;5053936;28;20423;-73
2021/03/28 10:27:47;;;;;;;2.03;1.40;;;10.10;99.90;;;;;;5059485;28;20029;-74
2021/03/28 10:30:49;;;;;;;1.55;0.93;;;9.90;99.90;;;;;;5060571;28;20581;-73
2021/03/28 10:33:37;;;;;;;5.32;1.63;;;9.90;99.90;;;;;;5088693;28;20036;-73
2021/03/28 10:36:11;;;;;;;3.95;1.70;;;9.90;99.90;;;;;;5056697;28;20111;-74
2021/03/28 10:39:11;;;;;;;6.30;1.63;;;10.00;99.90;;;;;;5057678;28;20109;-74
2021/03/28 10:42:17;;;;;;;3.53;1.65;;;10.10;99.90;;;;;;5083796;28;20108;-73
2021/03/28 10:45:04;;;;;;;3.35;1.15;;;10.30;99.90;;;;;;5057333;28;20111;-73
2021/03/28 10:48:09;;;;;;;4.95;1.50;;;10.40;99.90;;;;;;5056668;28;20037;-73
2021/03/28 10:50:53;;;;;;;3.05;1.10;;;10.50;99.90;;;;;;5058764;28;20024;-73
2021/03/28 10:53:28;;;;;;;2.33;1.35;;;10.50;99.90;;;;;;5060485;28;20040;-73
2021/03/28 10:56:15;;;;;;;4.40;1.33;;;10.60;99.90;;;;;;5090731;28;20087;-74
2021/03/28 10:58:59;;;;;;;4.85;1.63;;;10.70;99.90;;;;;;5059362;28;20025;-74
2021/03/28 11:01:51;;;;;;;2.92;1.20;;;10.80;99.90;;;;;;5056349;28;20426;-73
2021/03/28 11:04:54;;;;;;;2.33;1.00;;;10.80;99.90;;;;;;5048021;28;20024;-74
2021/03/28 11:07:38;;;;;;;2.03;0.82;;;10.80;99.90;;;;;;5060764;28;20036;-74
2021/03/28 11:10:22;;;;;;;2.00;0.95;;;10.80;99.90;;;;;;5054030;28;20052;-72
2021/03/28 11:13:18;;;;;;;4.05;1.30;;;10.60;99.90;;;;;;5084553;28;20080;-73
2021/03/28 11:16:17;;;;;;;1.33;0.77;;;10.70;99.90;;;;;;5055800;28;20056;-73
2021/03/28 11:19:24;;;;;;;4.05;1.40;;;10.70;99.90;;;;;;5065997;28;20491;-74
2021/03/28 11:22:06;;;;;;;7.65;1.30;;;10.70;99.90;;;;;;5051431;28;20491;-73
2021/03/28 11:24:51;;;;;;;2.88;1.10;;;10.70;99.90;;;;;;5050248;28;20040;-73
2021/03/28 11:27:40;;;;;;;3.30;1.25;;;10.60;99.90;;;;;;5057617;28;20086;-73
2021/03/28 11:30:33;;;;;;;1.67;0.93;;;10.60;99.90;;;;;;5057927;28;20037;-73
2021/03/28 11:33:08;;;;;;;3.03;0.98;;;10.50;99.90;;;;;;5055902;28;20037;-72
2021/03/28 11:35:40;;;;;;;2.23;0.87;;;10.40;99.90;;;;;;5058705;28;20031;-74
2021/03/28 11:38:18;;;;;;;2.85;1.10;;;10.40;99.90;;;;;;5056731;28;20290;-73
2021/03/28 11:41:06;;;;;;;3.08;1.35;;;10.30;99.90;;;;;;5084214;28;20024;-72
2021/03/28 11:43:43;;;;;;;5.75;1.05;;;10.30;99.90;;;;;;5051619;28;20438;-72
2021/03/28 11:46:38;;;;;;;1.00;0.80;;;10.20;99.90;;;;;;5051040;28;20036;-74
2021/03/28 11:49:08;;;;;;;2.08;1.13;;;10.20;99.90;;;;;;5081378;28;20047;-72
2021/03/28 11:51:33;;;;;;;7.63;1.00;;;10.30;99.90;;;;;;5081047;28;20564;-71
2021/03/28 11:54:15;;;;;;;2.70;1.20;;;10.50;99.90;;;;;;5053158;28;20025;-72
2021/03/28 11:57:04;;;;;;;1.30;0.85;;;10.60;99.90;;;;;;5049998;28;20033;-72
2021/03/28 11:59:41;;;;;;;1.98;0.93;;;10.80;99.90;;;;;;5041174;28;20032;-72
2021/03/28 12:02:10;;;;;;;2.17;0.70;;;10.80;99.90;;;;;;5052912;28;20025;-72
2021/03/28 12:04:36;;;;;;;2.95;0.93;;;10.80;99.90;;;;;;5072451;28;20029;-72
2021/03/28 12:07:18;;;;;;;4.18;0.90;;;10.80;99.90;;;;;;5054619;28;20074;-72
2021/03/28 12:10:03;;;;;;;1.70;1.00;;;10.80;99.90;;;;;;5047493;28;20063;-72
2021/03/28 12:12:47;;;;;;;3.33;0.98;;;10.70;99.90;;;;;;5053235;28;20028;-72
2021/03/28 12:15:44;;;;;;;2.55;1.20;;;10.60;99.90;;;;;;5085652;28;20025;-71
2021/03/28 12:18:25;;;;;;;1.48;0.60;;;10.60;99.90;;;;;;5087171;28;20021;-72
2021/03/28 12:21:03;;;;;;;4.40;1.23;;;10.60;99.90;;;;;;5054266;28;20645;-72
2021/03/28 12:23:43;;;;;;;1.75;0.70;;;10.60;99.90;;;;;;5049996;28;20031;-72
2021/03/28 12:26:27;;;;;;;3.35;0.57;;;10.60;99.90;;;;;;5055667;28;20116;-72
2021/03/28 12:29:05;;;;;;;2.63;0.77;;;10.80;99.90;;;;;;5054705;28;20103;-71
2021/03/28 12:31:40;;;;;;;1.55;0.50;;;10.80;99.90;;;;;;5050758;28;20028;-71
2021/03/28 12:34:09;;;;;;;3.13;0.77;;;10.80;99.90;;;;;;5055043;28;20032;-72
2021/03/28 12:37:03;;;;;;;1.30;0.40;;;10.90;99.90;;;;;;5059463;28;20063;-72
2021/03/28 12:39:35;;;;;;;1.90;0.82;;;10.90;99.90;;;;;;5053341;28;20032;-72
2021/03/28 12:42:04;;;;;;;4.75;0.75;;;11.00;99.90;;;;;;5064556;28;20539;-72
2021/03/28 12:44:38;;;;;;;1.30;0.80;;;11.00;99.90;;;;;;5058215;28;20087;-71
2021/03/28 12:47:07;;;;;;;2.38;0.70;;;11.00;99.90;;;;;;5050853;28;20073;-71
2021/03/28 12:49:49;;;;;;;1.27;0.60;;;11.10;99.90;;;;;;5052498;28;20451;-72
2021/03/28 12:52:33;;;;;;;2.28;0.70;;;11.10;99.90;;;;;;5051356;28;20389;-72
2021/03/28 12:55:17;;;;;;;0.88;0.60;;;11.20;99.90;;;;;;5051224;28;20029;-72
2021/03/28 12:57:52;;;;;;;2.53;0.90;;;11.30;99.90;;;;;;5054025;28;20058;-72
2021/03/28 13:00:38;;;;;;;0.90;0.50;;;11.40;99.90;;;;;;5053830;28;20075;-72
2021/03/28 13:03:36;;;;;;;2.42;0.98;;;11.60;99.90;;;;;;5054168;28;20029;-72
2021/03/28 13:06:25;;;;;;;2.80;0.93;;;12.10;99.90;;;;;;5053538;28;20044;-72
2021/03/28 13:09:00;;;;;;;1.20;0.80;;;12.60;99.90;;;;;;5051233;28;20021;-72
2021/03/28 13:11:39;;;;;;;1.52;0.82;;;13.00;99.90;;;;;;5052252;28;20021;-72
2021/03/28 13:14:07;;;;;;;2.35;0.70;;;13.30;96.40;;;;;;5048246;28;20766;-72
2021/03/28 13:16:36;;;;;;;1.55;0.80;;;13.30;92.30;;;;;;5052488;28;20124;-72
2021/03/28 13:19:02;;;;;;;3.28;0.82;;;13.20;89.50;;;;;;5050657;28;20398;-72
2021/03/28 13:21:36;;;;;;;2.00;0.80;;;13.20;95.70;;;;;;5049131;28;20049;-73
2021/03/28 13:24:21;;;;;;;2.60;0.82;;;13.30;93.90;;;;;;5052030;28;20040;-73
2021/03/28 13:27:10;;;;;;;3.88;1.05;;;13.40;93.20;;;;;;5056061;28;20029;-73
2021/03/28 13:29:41;;;;;;;1.80;0.80;;;13.40;82.20;;;;;;5049745;28;20020;-72
2021/03/28 13:32:30;;;;;;;1.75;0.82;;;13.40;85.50;;;;;;5047112;28;20078;-71
2021/03/28 13:35:05;;;;;;;2.75;1.23;;;13.30;89.50;;;;;;5051800;28;20044;-72
2021/03/28 13:37:54;;;;;;;1.25;0.68;;;13.20;89.80;;;;;;5052492;28;20023;-73
2021/03/28 13:40:50;;;;;;;1.33;0.90;;;13.30;90.80;;;;;;5054092;28;20228;-73
2021/03/28 13:43:22;;;;;;;2.83;0.93;;;13.70;92.00;;;;;;5055607;28;20020;-73
2021/03/28 13:45:51;;;;;;;3.75;1.38;;;13.80;83.50;;;;;;5059799;28;20118;-73
2021/03/28 13:48:17;;;;;;;2.28;0.60;;;13.90;79.80;;;;;;5058446;28;20024;-74
2021/03/28 13:50:53;;;;;;;4.45;0.73;;;14.00;77.60;;;;;;5057416;28;20035;-75
2021/03/28 13:53:36;;;;;;;4.35;0.73;;;14.10;76.60;;;;;;5060823;28;20412;-75
2021/03/28 13:56:23;;;;;;;1.52;0.80;;;14.20;80.20;;;;;;5055866;28;20040;-76
2021/03/28 13:59:07;;;;;;;3.03;1.08;;;14.00;75.70;;;;;;5057340;28;20725;-75
2021/03/28 14:01:46;;;;;;;2.08;1.20;;;14.00;74.90;;;;;;5055152;28;20067;-74
2021/03/28 14:04:27;;;;;;;3.10;0.90;;;14.00;75.10;;;;;;5056436;28;20025;-75
2021/03/28 14:07:06;;;;;;;2.10;1.35;;;14.00;72.60;;;;;;5054870;28;20029;-74
2021/03/28 14:09:35;;;;;;;1.63;0.80;;;13.90;71.20;;;;;;5055863;28;20491;-73
2021/03/28 14:12:08;;;;;;;2.60;0.85;;;13.80;75.10;;;;;;5054555;28;20031;-76
2021/03/28 14:14:38;;;;;;;2.00;0.70;;;13.80;74.00;;;;;;5047795;28;20021;-74
2021/03/28 14:17:13;;;;;;;3.15;1.10;;;13.60;75.00;;;;;;5047824;28;20427;-74
2021/03/28 14:19:39;;;;;;;2.77;1.33;;;13.40;71.60;;;;;;5049304;28;20064;-74
2021/03/28 14:22:31;;;;;;;2.72;0.90;;;13.30;73.00;;;;;;5048967;28;20047;-74
2021/03/28 14:24:59;;;;;;;1.48;0.70;;;13.10;70.10;;;;;;5052492;28;20013;-74
2021/03/28 14:27:32;;;;;;;2.00;0.65;;;13.00;72.10;;;;;;5050788;28;20633;-75
2021/03/28 14:30:01;;;;;;;3.50;0.80;;;13.00;83.90;;;;;;5053964;28;20064;-75
2021/03/28 14:32:42;;;;;;;3.38;1.63;;;13.00;80.70;;;;;;5052482;28;20083;-74